sensor_id;sensor_type;location;lat;lon;timestamp;P1;P2;P0
23240;PMS7003;11789;53.482;9.862;2023-12-07T00:00:29;81.50;60.25;33.25
23240;PMS7003;11789;53.482;9.862;2023-12-07T00:02:55;70.25;53.75;33.25
23240;PMS7003;11789;53.482;9.862;2023-12-07T00:05:20;84.75;64.00;36.00
23240;PMS7003;11789;53.482;9.862;2023-12-07T00:07:45;77.25;60.00;33.00
23240;PMS7003;11789;53.482;9.862;2023-12-07T00:10:11;87.50;65.25;34.00
23240;PMS7003;11789;53.482;9.862;2023-12-07T00:12:46;86.00;61.75;34.00
23240;PMS7003;11789;53.482;9.862;2023-12-07T00:15:12;79.75;59.25;31.50
23240;PMS7003;11789;53.482;9.862;2023-12-07T00:17:37;80.00;57.25;31.50
23240;PMS7003;11789;53.482;9.862;2023-12-07T00:20:03;83.75;59.25;33.25
23240;PMS7003;11789;53.482;9.862;2023-12-07T00:22:32;85.25;59.75;31.50
23240;PMS7003;11789;53.482;9.862;2023-12-07T00:24:58;89.50;62.25;33.25
23240;PMS7003;11789;53.482;9.862;2023-12-07T00:27:23;82.00;61.75;34.75
23240;PMS7003;11789;53.482;9.862;2023-12-07T00:29:49;74.25;56.75;31.50
23240;PMS7003;11789;53.482;9.862;2023-12-07T00:32:14;71.75;53.75;29.50
23240;PMS7003;11789;53.482;9.862;2023-12-07T00:34:40;76.50;58.50;33.25
23240;PMS7003;11789;53.482;9.862;2023-12-07T00:37:05;78.00;58.00;33.50
23240;PMS7003;11789;53.482;9.862;2023-12-07T00:39:31;82.75;60.25;31.25
23240;PMS7003;11789;53.482;9.862;2023-12-07T00:41:56;80.00;59.50;33.00
23240;PMS7003;11789;53.482;9.862;2023-12-07T00:44:22;82.00;59.25;31.75
23240;PMS7003;11789;53.482;9.862;2023-12-07T00:46:47;76.25;59.50;31.00
23240;PMS7003;11789;53.482;9.862;2023-12-07T00:49:13;75.25;58.25;31.00
23240;PMS7003;11789;53.482;9.862;2023-12-07T00:51:38;78.00;56.00;31.00
23240;PMS7003;11789;53.482;9.862;2023-12-07T00:54:04;77.25;59.00;31.75
23240;PMS7003;11789;53.482;9.862;2023-12-07T00:56:29;69.25;53.50;31.25
23240;PMS7003;11789;53.482;9.862;2023-12-07T00:58:55;72.25;57.25;31.00
23240;PMS7003;11789;53.482;9.862;2023-12-07T01:01:20;74.00;58.25;33.25
23240;PMS7003;11789;53.482;9.862;2023-12-07T01:03:45;79.50;57.50;31.00
23240;PMS7003;11789;53.482;9.862;2023-12-07T01:06:11;79.75;60.75;31.00
23240;PMS7003;11789;53.482;9.862;2023-12-07T01:08:37;77.50;58.50;31.25
23240;PMS7003;11789;53.482;9.862;2023-12-07T01:11:03;72.50;57.50;30.50
23240;PMS7003;11789;53.482;9.862;2023-12-07T01:13:29;71.25;57.75;31.00
23240;PMS7003;11789;53.482;9.862;2023-12-07T01:15:55;75.00;57.75;30.50
23240;PMS7003;11789;53.482;9.862;2023-12-07T01:18:21;77.50;55.75;31.00
23240;PMS7003;11789;53.482;9.862;2023-12-07T01:20:47;71.75;56.50;33.00
23240;PMS7003;11789;53.482;9.862;2023-12-07T01:23:13;71.75;55.50;30.75
23240;PMS7003;11789;53.482;9.862;2023-12-07T01:25:39;73.25;53.00;28.00
23240;PMS7003;11789;53.482;9.862;2023-12-07T01:28:04;72.75;54.50;30.00
23240;PMS7003;11789;53.482;9.862;2023-12-07T01:30:30;72.25;56.75;30.75
23240;PMS7003;11789;53.482;9.862;2023-12-07T01:32:55;87.75;62.00;31.75
23240;PMS7003;11789;53.482;9.862;2023-12-07T01:35:21;80.50;59.25;32.50
23240;PMS7003;11789;53.482;9.862;2023-12-07T01:37:46;79.25;59.00;31.25
23240;PMS7003;11789;53.482;9.862;2023-12-07T01:40:12;79.75;59.00;31.75
23240;PMS7003;11789;53.482;9.862;2023-12-07T01:42:40;74.75;59.75;33.50
23240;PMS7003;11789;53.482;9.862;2023-12-07T01:45:06;79.75;57.50;33.25
23240;PMS7003;11789;53.482;9.862;2023-12-07T01:47:32;82.25;60.00;33.75
23240;PMS7003;11789;53.482;9.862;2023-12-07T01:50:00;66.75;53.75;31.50
23240;PMS7003;11789;53.482;9.862;2023-12-07T01:52:29;71.25;56.50;31.00
23240;PMS7003;11789;53.482;9.862;2023-12-07T01:54:56;71.50;56.75;30.75
23240;PMS7003;11789;53.482;9.862;2023-12-07T01:57:22;75.75;54.50;33.00
23240;PMS7003;11789;53.482;9.862;2023-12-07T01:59:48;76.00;57.00;31.25
23240;PMS7003;11789;53.482;9.862;2023-12-07T02:02:15;74.00;56.00;31.75
23240;PMS7003;11789;53.482;9.862;2023-12-07T02:04:40;74.75;58.25;34.75
23240;PMS7003;11789;53.482;9.862;2023-12-07T02:07:06;70.75;53.00;30.50
23240;PMS7003;11789;53.482;9.862;2023-12-07T02:09:32;73.50;56.00;31.75
23240;PMS7003;11789;53.482;9.862;2023-12-07T02:11:58;71.50;54.75;33.25
23240;PMS7003;11789;53.482;9.862;2023-12-07T02:14:23;75.75;55.25;33.25
23240;PMS7003;11789;53.482;9.862;2023-12-07T02:16:51;70.75;54.75;30.00
23240;PMS7003;11789;53.482;9.862;2023-12-07T02:22:02;73.00;57.50;31.50
23240;PMS7003;11789;53.482;9.862;2023-12-07T02:24:35;79.00;58.00;32.75
23240;PMS7003;11789;53.482;9.862;2023-12-07T02:27:03;73.25;55.00;30.00
23240;PMS7003;11789;53.482;9.862;2023-12-07T02:29:28;78.75;60.25;33.00
23240;PMS7003;11789;53.482;9.862;2023-12-07T02:31:54;80.50;58.25;33.00
23240;PMS7003;11789;53.482;9.862;2023-12-07T02:34:19;74.00;57.00;33.00
23240;PMS7003;11789;53.482;9.862;2023-12-07T02:36:45;79.00;56.00;33.00
23240;PMS7003;11789;53.482;9.862;2023-12-07T02:39:13;65.25;54.25;31.50
23240;PMS7003;11789;53.482;9.862;2023-12-07T02:41:39;71.25;56.50;34.50
23240;PMS7003;11789;53.482;9.862;2023-12-07T02:44:06;74.50;55.00;30.75
23240;PMS7003;11789;53.482;9.862;2023-12-07T02:46:32;75.50;58.75;32.00
23240;PMS7003;11789;53.482;9.862;2023-12-07T02:48:58;73.00;54.50;31.50
23240;PMS7003;11789;53.482;9.862;2023-12-07T02:51:24;62.75;49.50;27.00
23240;PMS7003;11789;53.482;9.862;2023-12-07T02:53:50;67.00;54.00;32.75
23240;PMS7003;11789;53.482;9.862;2023-12-07T02:56:15;75.75;58.00;31.00
23240;PMS7003;11789;53.482;9.862;2023-12-07T02:58:40;67.25;53.25;31.00
23240;PMS7003;11789;53.482;9.862;2023-12-07T03:01:06;67.25;53.00;30.25
23240;PMS7003;11789;53.482;9.862;2023-12-07T03:03:33;72.50;56.00;31.00
23240;PMS7003;11789;53.482;9.862;2023-12-07T03:05:58;70.75;56.00;33.50
23240;PMS7003;11789;53.482;9.862;2023-12-07T03:08:24;79.75;56.25;33.50
23240;PMS7003;11789;53.482;9.862;2023-12-07T03:10:49;79.25;59.00;34.50
23240;PMS7003;11789;53.482;9.862;2023-12-07T03:13:14;79.25;59.50;33.00
23240;PMS7003;11789;53.482;9.862;2023-12-07T03:15:40;81.25;58.00;29.50
23240;PMS7003;11789;53.482;9.862;2023-12-07T03:18:06;73.75;56.00;31.50
23240;PMS7003;11789;53.482;9.862;2023-12-07T03:20:32;73.25;57.25;32.75
23240;PMS7003;11789;53.482;9.862;2023-12-07T03:22:59;77.50;58.00;31.25
23240;PMS7003;11789;53.482;9.862;2023-12-07T03:25:25;66.25;50.50;30.50
23240;PMS7003;11789;53.482;9.862;2023-12-07T03:27:50;70.00;53.25;28.25
23240;PMS7003;11789;53.482;9.862;2023-12-07T03:30:16;67.00;54.25;30.25
23240;PMS7003;11789;53.482;9.862;2023-12-07T03:32:41;78.00;58.00;33.25
23240;PMS7003;11789;53.482;9.862;2023-12-07T03:35:06;69.00;55.50;31.25
23240;PMS7003;11789;53.482;9.862;2023-12-07T03:37:32;73.50;55.00;29.25
23240;PMS7003;11789;53.482;9.862;2023-12-07T03:39:57;73.25;57.25;31.00
23240;PMS7003;11789;53.482;9.862;2023-12-07T03:42:23;79.00;60.25;31.50
23240;PMS7003;11789;53.482;9.862;2023-12-07T03:44:48;69.00;50.25;29.50
23240;PMS7003;11789;53.482;9.862;2023-12-07T03:47:14;72.25;56.25;33.00
23240;PMS7003;11789;53.482;9.862;2023-12-07T03:49:39;67.50;54.00;31.25
23240;PMS7003;11789;53.482;9.862;2023-12-07T03:52:06;68.75;52.50;29.25
23240;PMS7003;11789;53.482;9.862;2023-12-07T03:54:32;68.75;51.25;31.50
23240;PMS7003;11789;53.482;9.862;2023-12-07T03:56:57;68.50;58.25;34.25
23240;PMS7003;11789;53.482;9.862;2023-12-07T03:59:23;80.50;61.25;36.75
23240;PMS7003;11789;53.482;9.862;2023-12-07T04:01:48;77.75;57.50;33.25
23240;PMS7003;11789;53.482;9.862;2023-12-07T04:04:13;80.00;58.75;34.50
23240;PMS7003;11789;53.482;9.862;2023-12-07T04:06:39;66.75;54.25;32.50
23240;PMS7003;11789;53.482;9.862;2023-12-07T04:09:04;76.50;55.25;33.00
23240;PMS7003;11789;53.482;9.862;2023-12-07T04:11:30;65.25;53.75;31.75
23240;PMS7003;11789;53.482;9.862;2023-12-07T04:13:55;70.75;55.25;31.25
23240;PMS7003;11789;53.482;9.862;2023-12-07T04:16:21;68.25;53.50;30.75
23240;PMS7003;11789;53.482;9.862;2023-12-07T04:18:46;71.75;53.50;31.50
23240;PMS7003;11789;53.482;9.862;2023-12-07T04:21:12;71.25;56.50;33.50
23240;PMS7003;11789;53.482;9.862;2023-12-07T04:23:37;75.50;59.00;34.75
23240;PMS7003;11789;53.482;9.862;2023-12-07T04:26:03;73.25;57.75;31.25
23240;PMS7003;11789;53.482;9.862;2023-12-07T04:28:28;74.50;57.75;34.75
23240;PMS7003;11789;53.482;9.862;2023-12-07T04:30:54;71.25;56.50;33.25
23240;PMS7003;11789;53.482;9.862;2023-12-07T04:33:19;65.50;55.25;33.50
23240;PMS7003;11789;53.482;9.862;2023-12-07T04:35:45;72.25;56.50;31.50
23240;PMS7003;11789;53.482;9.862;2023-12-07T04:38:10;75.00;58.25;34.50
23240;PMS7003;11789;53.482;9.862;2023-12-07T04:40:36;71.75;58.00;35.00
23240;PMS7003;11789;53.482;9.862;2023-12-07T04:43:02;78.75;59.00;32.75
23240;PMS7003;11789;53.482;9.862;2023-12-07T04:45:28;79.50;56.50;33.00
23240;PMS7003;11789;53.482;9.862;2023-12-07T04:47:53;70.75;57.00;31.50
23240;PMS7003;11789;53.482;9.862;2023-12-07T04:50:19;78.50;61.25;35.25
23240;PMS7003;11789;53.482;9.862;2023-12-07T04:52:44;78.25;57.25;33.25
23240;PMS7003;11789;53.482;9.862;2023-12-07T04:55:09;79.75;60.50;34.75
23240;PMS7003;11789;53.482;9.862;2023-12-07T04:57:35;76.50;59.25;34.00
23240;PMS7003;11789;53.482;9.862;2023-12-07T05:00:04;78.75;60.75;36.25
23240;PMS7003;11789;53.482;9.862;2023-12-07T05:02:34;79.00;58.25;34.25
23240;PMS7003;11789;53.482;9.862;2023-12-07T05:04:59;75.50;57.50;33.25
23240;PMS7003;11789;53.482;9.862;2023-12-07T05:07:25;80.75;59.25;33.75
23240;PMS7003;11789;53.482;9.862;2023-12-07T05:09:50;75.00;52.50;31.25
23240;PMS7003;11789;53.482;9.862;2023-12-07T05:12:16;71.00;56.50;33.00
23240;PMS7003;11789;53.482;9.862;2023-12-07T05:14:42;72.50;58.50;34.75
23240;PMS7003;11789;53.482;9.862;2023-12-07T05:17:07;79.00;60.00;33.50
23240;PMS7003;11789;53.482;9.862;2023-12-07T05:19:33;70.50;55.25;32.50
23240;PMS7003;11789;53.482;9.862;2023-12-07T05:21:58;76.50;60.25;35.00
23240;PMS7003;11789;53.482;9.862;2023-12-07T05:24:24;69.25;56.25;28.50
23240;PMS7003;11789;53.482;9.862;2023-12-07T05:26:49;75.25;57.75;34.50
23240;PMS7003;11789;53.482;9.862;2023-12-07T05:29:15;78.50;57.25;33.25
23240;PMS7003;11789;53.482;9.862;2023-12-07T05:31:40;71.25;57.00;32.00
23240;PMS7003;11789;53.482;9.862;2023-12-07T05:34:09;75.25;59.25;32.75
23240;PMS7003;11789;53.482;9.862;2023-12-07T05:36:34;80.25;57.25;34.25
23240;PMS7003;11789;53.482;9.862;2023-12-07T05:39:00;73.25;57.50;31.00
23240;PMS7003;11789;53.482;9.862;2023-12-07T05:41:26;66.25;54.00;31.00
23240;PMS7003;11789;53.482;9.862;2023-12-07T05:43:52;70.50;55.75;31.75
23240;PMS7003;11789;53.482;9.862;2023-12-07T05:46:20;76.25;57.00;32.50
23240;PMS7003;11789;53.482;9.862;2023-12-07T05:48:46;71.50;58.75;31.75
23240;PMS7003;11789;53.482;9.862;2023-12-07T05:51:15;70.75;56.75;32.25
23240;PMS7003;11789;53.482;9.862;2023-12-07T05:53:42;74.50;55.50;31.50
23240;PMS7003;11789;53.482;9.862;2023-12-07T05:56:08;63.75;54.00;32.00
23240;PMS7003;11789;53.482;9.862;2023-12-07T05:58:34;64.75;51.25;27.50
23240;PMS7003;11789;53.482;9.862;2023-12-07T06:01:00;77.25;59.25;33.75
23240;PMS7003;11789;53.482;9.862;2023-12-07T06:03:27;72.25;53.25;32.00
23240;PMS7003;11789;53.482;9.862;2023-12-07T06:05:53;68.00;53.00;29.75
23240;PMS7003;11789;53.482;9.862;2023-12-07T06:08:18;66.75;53.25;31.00
23240;PMS7003;11789;53.482;9.862;2023-12-07T06:10:44;67.75;53.00;31.00
23240;PMS7003;11789;53.482;9.862;2023-12-07T06:13:10;69.50;55.00;32.00
23240;PMS7003;11789;53.482;9.862;2023-12-07T06:15:36;72.75;57.50;33.00
23240;PMS7003;11789;53.482;9.862;2023-12-07T06:18:01;65.50;53.50;29.25
23240;PMS7003;11789;53.482;9.862;2023-12-07T06:20:28;71.00;53.75;31.00
23240;PMS7003;11789;53.482;9.862;2023-12-07T06:22:53;68.75;56.75;33.75
23240;PMS7003;11789;53.482;9.862;2023-12-07T06:25:19;70.00;54.00;31.00
23240;PMS7003;11789;53.482;9.862;2023-12-07T06:27:45;80.25;59.00;31.75
23240;PMS7003;11789;53.482;9.862;2023-12-07T06:30:11;73.50;55.00;31.00
23240;PMS7003;11789;53.482;9.862;2023-12-07T06:32:36;68.75;57.00;33.25
23240;PMS7003;11789;53.482;9.862;2023-12-07T06:35:02;75.50;57.75;33.25
23240;PMS7003;11789;53.482;9.862;2023-12-07T06:37:29;71.50;57.00;33.00
23240;PMS7003;11789;53.482;9.862;2023-12-07T06:39:55;76.25;60.75;34.00
23240;PMS7003;11789;53.482;9.862;2023-12-07T06:42:21;70.50;55.50;29.75
23240;PMS7003;11789;53.482;9.862;2023-12-07T06:44:46;73.25;55.25;31.00
23240;PMS7003;11789;53.482;9.862;2023-12-07T06:47:13;72.50;55.25;31.50
23240;PMS7003;11789;53.482;9.862;2023-12-07T06:49:39;77.75;59.00;30.50
23240;PMS7003;11789;53.482;9.862;2023-12-07T06:52:04;71.75;54.75;32.25
23240;PMS7003;11789;53.482;9.862;2023-12-07T06:54:30;75.25;56.00;33.00
23240;PMS7003;11789;53.482;9.862;2023-12-07T06:56:55;72.25;56.25;31.25
23240;PMS7003;11789;53.482;9.862;2023-12-07T06:59:21;74.50;57.25;32.50
23240;PMS7003;11789;53.482;9.862;2023-12-07T07:01:46;69.25;54.00;31.00
23240;PMS7003;11789;53.482;9.862;2023-12-07T07:04:12;71.50;57.00;31.50
23240;PMS7003;11789;53.482;9.862;2023-12-07T07:06:38;72.50;54.50;31.50
23240;PMS7003;11789;53.482;9.862;2023-12-07T07:09:05;71.00;54.75;29.75
23240;PMS7003;11789;53.482;9.862;2023-12-07T07:11:30;72.75;56.50;32.25
23240;PMS7003;11789;53.482;9.862;2023-12-07T07:13:56;72.25;55.75;32.75
23240;PMS7003;11789;53.482;9.862;2023-12-07T07:16:21;70.00;54.00;29.25
23240;PMS7003;11789;53.482;9.862;2023-12-07T07:18:47;71.25;55.25;31.00
23240;PMS7003;11789;53.482;9.862;2023-12-07T07:21:12;73.50;57.50;30.75
23240;PMS7003;11789;53.482;9.862;2023-12-07T07:23:37;70.75;53.00;29.50
23240;PMS7003;11789;53.482;9.862;2023-12-07T07:26:03;74.25;55.75;31.50
23240;PMS7003;11789;53.482;9.862;2023-12-07T07:28:29;72.25;53.00;27.25
23240;PMS7003;11789;53.482;9.862;2023-12-07T07:30:54;74.50;56.50;30.25
23240;PMS7003;11789;53.482;9.862;2023-12-07T07:33:20;62.50;49.75;29.50
23240;PMS7003;11789;53.482;9.862;2023-12-07T07:35:45;70.50;54.75;29.00
23240;PMS7003;11789;53.482;9.862;2023-12-07T07:38:11;70.25;56.75;32.25
23240;PMS7003;11789;53.482;9.862;2023-12-07T07:40:37;69.75;56.25;30.50
23240;PMS7003;11789;53.482;9.862;2023-12-07T07:43:02;71.50;53.75;29.75
23240;PMS7003;11789;53.482;9.862;2023-12-07T07:45:27;70.25;54.50;29.00
23240;PMS7003;11789;53.482;9.862;2023-12-07T07:47:53;66.50;52.25;29.25
23240;PMS7003;11789;53.482;9.862;2023-12-07T07:50:19;69.25;53.50;31.50
23240;PMS7003;11789;53.482;9.862;2023-12-07T07:52:44;72.25;55.00;31.50
23240;PMS7003;11789;53.482;9.862;2023-12-07T07:55:10;62.75;47.00;28.00
23240;PMS7003;11789;53.482;9.862;2023-12-07T07:57:36;72.50;56.25;31.00
23240;PMS7003;11789;53.482;9.862;2023-12-07T08:00:02;65.75;53.50;31.00
23240;PMS7003;11789;53.482;9.862;2023-12-07T08:02:29;71.75;55.75;29.25
23240;PMS7003;11789;53.482;9.862;2023-12-07T08:04:55;78.25;56.50;31.00
23240;PMS7003;11789;53.482;9.862;2023-12-07T08:07:20;68.25;50.75;27.50
23240;PMS7003;11789;53.482;9.862;2023-12-07T08:09:46;67.75;53.00;29.25
23240;PMS7003;11789;53.482;9.862;2023-12-07T08:12:11;66.75;51.50;29.00
23240;PMS7003;11789;53.482;9.862;2023-12-07T08:14:37;59.25;47.25;25.25
23240;PMS7003;11789;53.482;9.862;2023-12-07T08:17:03;70.00;55.00;31.00
23240;PMS7003;11789;53.482;9.862;2023-12-07T08:19:29;72.00;54.50;29.75
23240;PMS7003;11789;53.482;9.862;2023-12-07T08:21:54;73.00;56.00;30.00
23240;PMS7003;11789;53.482;9.862;2023-12-07T08:24:20;70.50;56.25;32.75
23240;PMS7003;11789;53.482;9.862;2023-12-07T08:26:45;72.00;57.50;31.50
23240;PMS7003;11789;53.482;9.862;2023-12-07T08:29:11;74.00;59.00;33.00
23240;PMS7003;11789;53.482;9.862;2023-12-07T08:31:36;63.75;51.50;30.25
23240;PMS7003;11789;53.482;9.862;2023-12-07T08:34:02;76.50;59.75;32.50
23240;PMS7003;11789;53.482;9.862;2023-12-07T08:36:27;69.50;54.50;30.25
23240;PMS7003;11789;53.482;9.862;2023-12-07T08:38:53;71.50;56.00;32.50
23240;PMS7003;11789;53.482;9.862;2023-12-07T08:41:19;62.25;53.50;30.25
23240;PMS7003;11789;53.482;9.862;2023-12-07T08:43:45;76.75;57.00;30.25
23240;PMS7003;11789;53.482;9.862;2023-12-07T08:46:10;73.00;57.25;34.25
23240;PMS7003;11789;53.482;9.862;2023-12-07T08:48:36;76.00;59.25;35.25
23240;PMS7003;11789;53.482;9.862;2023-12-07T08:51:03;72.50;58.75;35.75
23240;PMS7003;11789;53.482;9.862;2023-12-07T08:53:28;75.00;59.00;33.00
23240;PMS7003;11789;53.482;9.862;2023-12-07T08:55:54;80.25;60.00;34.25
23240;PMS7003;11789;53.482;9.862;2023-12-07T08:58:20;65.00;53.00;33.75
23240;PMS7003;11789;53.482;9.862;2023-12-07T09:00:46;72.50;57.25;33.75
23240;PMS7003;11789;53.482;9.862;2023-12-07T09:03:11;74.25;57.00;33.00
23240;PMS7003;11789;53.482;9.862;2023-12-07T09:05:37;74.00;57.00;28.50
23240;PMS7003;11789;53.482;9.862;2023-12-07T09:08:02;74.25;55.75;29.50
23240;PMS7003;11789;53.482;9.862;2023-12-07T09:10:28;75.00;56.25;30.25
23240;PMS7003;11789;53.482;9.862;2023-12-07T09:12:53;76.75;55.25;31.00
23240;PMS7003;11789;53.482;9.862;2023-12-07T09:15:19;72.25;57.25;30.00
23240;PMS7003;11789;53.482;9.862;2023-12-07T09:17:44;71.00;54.25;30.00
23240;PMS7003;11789;53.482;9.862;2023-12-07T09:20:10;75.25;57.00;30.00
23240;PMS7003;11789;53.482;9.862;2023-12-07T09:22:45;76.25;57.25;32.25
23240;PMS7003;11789;53.482;9.862;2023-12-07T09:25:12;68.25;54.50;32.00
23240;PMS7003;11789;53.482;9.862;2023-12-07T09:27:38;75.25;55.75;30.25
23240;PMS7003;11789;53.482;9.862;2023-12-07T09:30:07;76.25;55.75;29.50
23240;PMS7003;11789;53.482;9.862;2023-12-07T09:32:39;71.50;54.50;29.75
23240;PMS7003;11789;53.482;9.862;2023-12-07T09:35:07;69.00;54.00;29.00
23240;PMS7003;11789;53.482;9.862;2023-12-07T09:37:39;74.67;57.00;31.33
23240;PMS7003;11789;53.482;9.862;2023-12-07T09:40:05;66.67;54.33;28.67
23240;PMS7003;11789;53.482;9.862;2023-12-07T09:42:32;63.67;51.67;30.00
23240;PMS7003;11789;53.482;9.862;2023-12-07T09:44:58;72.50;56.25;30.25
23240;PMS7003;11789;53.482;9.862;2023-12-07T09:47:27;67.33;53.00;30.00
23240;PMS7003;11789;53.482;9.862;2023-12-07T09:49:55;76.50;56.50;30.25
23240;PMS7003;11789;53.482;9.862;2023-12-07T09:52:22;66.67;51.67;28.67
23240;PMS7003;11789;53.482;9.862;2023-12-07T09:54:49;71.75;56.50;29.00
23240;PMS7003;11789;53.482;9.862;2023-12-07T09:57:16;74.25;55.00;29.00
23240;PMS7003;11789;53.482;9.862;2023-12-07T09:59:42;73.67;55.67;29.33
23240;PMS7003;11789;53.482;9.862;2023-12-07T10:02:07;67.25;52.00;28.00
23240;PMS7003;11789;53.482;9.862;2023-12-07T10:04:33;66.00;52.67;28.00
23240;PMS7003;11789;53.482;9.862;2023-12-07T10:06:58;66.00;52.33;30.00
23240;PMS7003;11789;53.482;9.862;2023-12-07T10:09:24;62.00;49.00;27.33
23240;PMS7003;11789;53.482;9.862;2023-12-07T10:12:01;69.25;54.00;29.00
23240;PMS7003;11789;53.482;9.862;2023-12-07T10:14:27;65.00;52.00;28.00
23240;PMS7003;11789;53.482;9.862;2023-12-07T10:16:53;56.67;45.33;25.67
23240;PMS7003;11789;53.482;9.862;2023-12-07T10:19:20;63.00;47.25;28.50
23240;PMS7003;11789;53.482;9.862;2023-12-07T10:21:50;60.33;47.33;26.33
23240;PMS7003;11789;53.482;9.862;2023-12-07T10:24:20;58.33;48.67;26.67
23240;PMS7003;11789;53.482;9.862;2023-12-07T10:26:48;59.00;46.33;26.00
23240;PMS7003;11789;53.482;9.862;2023-12-07T10:29:14;74.67;52.33;29.33
23240;PMS7003;11789;53.482;9.862;2023-12-07T10:31:42;60.33;48.67;28.00
23240;PMS7003;11789;53.482;9.862;2023-12-07T10:34:09;57.67;44.00;19.33
23240;PMS7003;11789;53.482;9.862;2023-12-07T10:36:34;58.33;47.00;25.33
23240;PMS7003;11789;53.482;9.862;2023-12-07T10:39:00;65.33;50.67;28.00
23240;PMS7003;11789;53.482;9.862;2023-12-07T10:41:26;61.33;49.00;28.00
23240;PMS7003;11789;53.482;9.862;2023-12-07T10:43:52;62.67;49.67;28.33
23240;PMS7003;11789;53.482;9.862;2023-12-07T10:46:22;62.33;48.33;28.00
23240;PMS7003;11789;53.482;9.862;2023-12-07T10:48:48;66.67;48.00;28.33
23240;PMS7003;11789;53.482;9.862;2023-12-07T10:54:06;61.00;48.67;28.00
23240;PMS7003;11789;53.482;9.862;2023-12-07T10:56:43;62.33;49.33;28.00
23240;PMS7003;11789;53.482;9.862;2023-12-07T10:59:10;63.00;46.33;28.00
23240;PMS7003;11789;53.482;9.862;2023-12-07T11:01:39;59.33;45.67;25.00
23240;PMS7003;11789;53.482;9.862;2023-12-07T11:04:06;63.67;49.00;28.33
23240;PMS7003;11789;53.482;9.862;2023-12-07T11:06:33;59.33;48.67;28.00
23240;PMS7003;11789;53.482;9.862;2023-12-07T11:09:00;58.67;47.67;27.67
23240;PMS7003;11789;53.482;9.862;2023-12-07T11:14:36;66.00;47.33;25.33
23240;PMS7003;11789;53.482;9.862;2023-12-07T11:17:03;62.00;47.33;28.00
23240;PMS7003;11789;53.482;9.862;2023-12-07T11:21:55;66.00;50.33;27.33
23240;PMS7003;11789;53.482;9.862;2023-12-07T11:24:22;61.67;52.00;28.33
23240;PMS7003;11789;53.482;9.862;2023-12-07T11:26:48;62.33;48.33;27.33
23240;PMS7003;11789;53.482;9.862;2023-12-07T11:29:19;63.67;48.67;25.00
23240;PMS7003;11789;53.482;9.862;2023-12-07T11:31:45;63.00;49.00;27.67
23240;PMS7003;11789;53.482;9.862;2023-12-07T11:34:11;62.33;48.33;27.00
23240;PMS7003;11789;53.482;9.862;2023-12-07T11:36:39;64.00;49.67;26.00
23240;PMS7003;11789;53.482;9.862;2023-12-07T11:41:43;68.50;53.25;29.00
23240;PMS7003;11789;53.482;9.862;2023-12-07T11:44:10;59.00;47.33;26.33
23240;PMS7003;11789;53.482;9.862;2023-12-07T11:46:37;59.00;49.33;28.00
23240;PMS7003;11789;53.482;9.862;2023-12-07T11:49:02;70.75;52.75;29.00
23240;PMS7003;11789;53.482;9.862;2023-12-07T11:51:29;61.33;49.00;26.67
23240;PMS7003;11789;53.482;9.862;2023-12-07T11:53:54;61.67;48.00;24.33
23240;PMS7003;11789;53.482;9.862;2023-12-07T11:56:20;62.00;50.33;29.00
23240;PMS7003;11789;53.482;9.862;2023-12-07T11:58:46;63.33;52.00;27.00
23240;PMS7003;11789;53.482;9.862;2023-12-07T12:01:13;69.00;51.00;29.00
23240;PMS7003;11789;53.482;9.862;2023-12-07T12:03:38;62.25;52.25;27.50
23240;PMS7003;11789;53.482;9.862;2023-12-07T12:06:04;68.67;51.33;28.00
23240;PMS7003;11789;53.482;9.862;2023-12-07T12:08:31;59.33;50.33;28.00
23240;PMS7003;11789;53.482;9.862;2023-12-07T12:10:57;67.67;49.33;28.00
23240;PMS7003;11789;53.482;9.862;2023-12-07T12:13:29;65.33;50.67;28.67
23240;PMS7003;11789;53.482;9.862;2023-12-07T12:16:00;65.33;52.33;29.00
23240;PMS7003;11789;53.482;9.862;2023-12-07T12:18:26;67.67;52.33;29.33
23240;PMS7003;11789;53.482;9.862;2023-12-07T12:20:52;64.33;51.00;28.33
23240;PMS7003;11789;53.482;9.862;2023-12-07T12:23:18;76.33;55.00;28.33
23240;PMS7003;11789;53.482;9.862;2023-12-07T12:25:45;64.67;50.00;27.33
23240;PMS7003;11789;53.482;9.862;2023-12-07T12:28:11;66.67;52.67;29.00
23240;PMS7003;11789;53.482;9.862;2023-12-07T12:30:40;62.00;47.67;26.00
23240;PMS7003;11789;53.482;9.862;2023-12-07T12:33:07;65.00;51.00;29.67
23240;PMS7003;11789;53.482;9.862;2023-12-07T12:35:32;66.67;53.33;29.00
23240;PMS7003;11789;53.482;9.862;2023-12-07T12:37:58;65.33;54.00;30.00
23240;PMS7003;11789;53.482;9.862;2023-12-07T12:40:23;65.25;53.75;29.00
23240;PMS7003;11789;53.482;9.862;2023-12-07T12:42:54;70.00;55.00;31.67
23240;PMS7003;11789;53.482;9.862;2023-12-07T12:45:19;75.33;53.33;29.00
23240;PMS7003;11789;53.482;9.862;2023-12-07T12:47:46;66.67;52.67;30.00
23240;PMS7003;11789;53.482;9.862;2023-12-07T12:50:31;72.25;53.75;30.00
23240;PMS7003;11789;53.482;9.862;2023-12-07T12:53:05;63.00;50.00;29.00
23240;PMS7003;11789;53.482;9.862;2023-12-07T12:55:35;72.75;52.75;29.75
23240;PMS7003;11789;53.482;9.862;2023-12-07T12:58:02;64.67;50.33;29.67
23240;PMS7003;11789;53.482;9.862;2023-12-07T13:00:29;61.33;51.33;29.00
23240;PMS7003;11789;53.482;9.862;2023-12-07T13:02:58;67.67;50.67;29.00
23240;PMS7003;11789;53.482;9.862;2023-12-07T13:05:25;65.67;50.33;29.00
23240;PMS7003;11789;53.482;9.862;2023-12-07T13:07:51;65.00;50.67;29.00
23240;PMS7003;11789;53.482;9.862;2023-12-07T13:10:16;73.67;53.33;29.00
23240;PMS7003;11789;53.482;9.862;2023-12-07T13:12:41;65.67;50.00;29.00
23240;PMS7003;11789;53.482;9.862;2023-12-07T13:15:07;68.00;52.33;29.33
23240;PMS7003;11789;53.482;9.862;2023-12-07T13:17:34;70.00;52.75;29.00
23240;PMS7003;11789;53.482;9.862;2023-12-07T13:19:59;60.00;49.33;28.67
23240;PMS7003;11789;53.482;9.862;2023-12-07T13:22:25;66.67;50.33;25.00
23240;PMS7003;11789;53.482;9.862;2023-12-07T13:24:50;61.33;49.67;27.33
23240;PMS7003;11789;53.482;9.862;2023-12-07T13:27:16;59.75;46.25;31.00
23240;PMS7003;11789;53.482;9.862;2023-12-07T13:29:41;66.00;51.33;28.33
23240;PMS7003;11789;53.482;9.862;2023-12-07T13:32:07;66.67;50.00;29.00
23240;PMS7003;11789;53.482;9.862;2023-12-07T13:34:32;68.67;53.00;27.00
23240;PMS7003;11789;53.482;9.862;2023-12-07T13:36:58;70.33;53.33;29.67
23240;PMS7003;11789;53.482;9.862;2023-12-07T13:39:24;68.75;54.50;29.00
23240;PMS7003;11789;53.482;9.862;2023-12-07T13:41:51;64.33;50.33;27.33
23240;PMS7003;11789;53.482;9.862;2023-12-07T13:44:17;60.00;50.00;26.00
23240;PMS7003;11789;53.482;9.862;2023-12-07T13:46:43;66.75;54.25;29.00
23240;PMS7003;11789;53.482;9.862;2023-12-07T13:49:09;66.33;53.33;29.00
23240;PMS7003;11789;53.482;9.862;2023-12-07T13:51:37;72.00;51.67;29.00
23240;PMS7003;11789;53.482;9.862;2023-12-07T13:54:03;52.67;46.67;27.33